sensor_id;sensor_type;location;lat;lon;timestamp;pressure;altitude;pressure_sealevel;temperature;humidity
28935;BME280;16044;52.726;-2.108;2022-08-02T00:00:35;100445.88;;;19.53;73.73
28935;BME280;16044;52.726;-2.108;2022-08-02T00:03:02;100441.22;;;19.54;74.14
28935;BME280;16044;52.726;-2.108;2022-08-02T00:05:29;100449.47;;;19.54;74.08
28935;BME280;16044;52.726;-2.108;2022-08-02T00:07:56;100451.59;;;19.52;74.30
28935;BME280;16044;52.726;-2.108;2022-08-02T00:10:23;100445.88;;;19.53;74.56
28935;BME280;16044;52.726;-2.108;2022-08-02T00:12:50;100443.34;;;19.52;74.83
28935;BME280;16044;52.726;-2.108;2022-08-02T00:15:18;100431.91;;;19.55;75.10
28935;BME280;16044;52.726;-2.108;2022-08-02T00:17:45;100418.72;;;19.45;75.79
28935;BME280;16044;52.726;-2.108;2022-08-02T00:20:14;100421.00;;;19.48;75.65
28935;BME280;16044;52.726;-2.108;2022-08-02T00:22:41;100409.41;;;19.46;75.86
28935;BME280;16044;52.726;-2.108;2022-08-02T00:25:08;100412.38;;;19.44;76.36
28935;BME280;16044;52.726;-2.108;2022-08-02T00:27:36;100415.13;;;19.44;76.17
28935;BME280;16044;52.726;-2.108;2022-08-02T00:30:03;100406.66;;;19.46;76.42
28935;BME280;16044;52.726;-2.108;2022-08-02T00:32:30;100402.13;;;19.40;76.50
28935;BME280;16044;52.726;-2.108;2022-08-02T00:34:57;100403.41;;;19.37;76.85
28935;BME280;16044;52.726;-2.108;2022-08-02T00:37:24;100398.28;;;19.41;76.77
28935;BME280;16044;52.726;-2.108;2022-08-02T00:39:51;100399.59;;;19.38;77.14
28935;BME280;16044;52.726;-2.108;2022-08-02T00:42:18;100399.16;;;19.41;77.27
28935;BME280;16044;52.726;-2.108;2022-08-02T00:44:45;100401.63;;;19.43;77.15
28935;BME280;16044;52.726;-2.108;2022-08-02T00:47:12;100396.13;;;19.31;78.00
28935;BME280;16044;52.726;-2.108;2022-08-02T00:49:44;100386.56;;;19.34;78.03
28935;BME280;16044;52.726;-2.108;2022-08-02T00:52:11;100388.25;;;19.35;78.01
28935;BME280;16044;52.726;-2.108;2022-08-02T00:54:38;100395.91;;;19.33;78.17
28935;BME280;16044;52.726;-2.108;2022-08-02T00:57:05;100396.34;;;19.29;78.36
28935;BME280;16044;52.726;-2.108;2022-08-02T00:59:32;100397.56;;;19.34;78.71
28935;BME280;16044;52.726;-2.108;2022-08-02T01:01:59;100389.44;;;19.27;78.87
28935;BME280;16044;52.726;-2.108;2022-08-02T01:04:26;100396.84;;;19.26;79.22
28935;BME280;16044;52.726;-2.108;2022-08-02T01:06:58;100393.97;;;19.21;79.63
28935;BME280;16044;52.726;-2.108;2022-08-02T01:09:43;100387.75;;;19.26;79.44
28935;BME280;16044;52.726;-2.108;2022-08-02T01:12:11;100380.09;;;19.28;79.79
28935;BME280;16044;52.726;-2.108;2022-08-02T01:14:41;100370.19;;;19.27;80.08
28935;BME280;16044;52.726;-2.108;2022-08-02T01:26:36;100352.59;;;19.16;80.85
28935;BME280;16044;52.726;-2.108;2022-08-02T01:29:28;100355.25;;;19.23;80.38
28935;BME280;16044;52.726;-2.108;2022-08-02T01:34:49;100358.84;;;19.23;80.83
28935;BME280;16044;52.726;-2.108;2022-08-02T01:37:43;100349.03;;;19.27;80.78
28935;BME280;16044;52.726;-2.108;2022-08-02T01:40:16;100354.91;;;19.31;80.72
28935;BME280;16044;52.726;-2.108;2022-08-02T01:42:48;100347.25;;;19.21;81.33
28935;BME280;16044;52.726;-2.108;2022-08-02T01:45:19;100353.25;;;19.30;80.86
28935;BME280;16044;52.726;-2.108;2022-08-02T01:47:48;100344.28;;;19.35;80.76
28935;BME280;16044;52.726;-2.108;2022-08-02T01:50:22;100343.22;;;19.36;80.69
28935;BME280;16044;52.726;-2.108;2022-08-02T01:52:57;100338.78;;;19.35;80.94
28935;BME280;16044;52.726;-2.108;2022-08-02T01:55:33;100344.28;;;19.35;80.87
28935;BME280;16044;52.726;-2.108;2022-08-02T01:58:26;100353.56;;;19.34;80.98
28935;BME280;16044;52.726;-2.108;2022-08-02T02:00:57;100344.41;;;19.40;80.87
28935;BME280;16044;52.726;-2.108;2022-08-02T02:03:26;100341.41;;;19.41;80.94
28935;BME280;16044;52.726;-2.108;2022-08-02T02:05:56;100338.91;;;19.40;80.98
28935;BME280;16044;52.726;-2.108;2022-08-02T02:08:31;100332.22;;;19.36;81.42
28935;BME280;16044;52.726;-2.108;2022-08-02T02:11:01;100329.47;;;19.36;81.10
28935;BME280;16044;52.726;-2.108;2022-08-02T02:13:49;100329.47;;;19.36;81.57
28935;BME280;16044;52.726;-2.108;2022-08-02T02:16:18;100322.66;;;19.38;81.46
28935;BME280;16044;52.726;-2.108;2022-08-02T02:18:46;100323.47;;;19.39;81.38
28935;BME280;16044;52.726;-2.108;2022-08-02T02:21:15;100325.16;;;19.40;81.69
28935;BME280;16044;52.726;-2.108;2022-08-02T02:23:42;100323.84;;;19.42;81.30
28935;BME280;16044;52.726;-2.108;2022-08-02T02:26:12;100311.66;;;19.38;81.62
28935;BME280;16044;52.726;-2.108;2022-08-02T02:28:46;100293.75;;;19.36;81.93
28935;BME280;16044;52.726;-2.108;2022-08-02T02:31:15;100282.13;;;19.34;82.02
28935;BME280;16044;52.726;-2.108;2022-08-02T02:34:12;100280.59;;;19.38;81.47
28935;BME280;16044;52.726;-2.108;2022-08-02T02:36:46;100279.13;;;19.35;81.91
28935;BME280;16044;52.726;-2.108;2022-08-02T02:39:17;100276.03;;;19.32;81.84
28935;BME280;16044;52.726;-2.108;2022-08-02T02:41:48;100286.78;;;19.33;81.77
28935;BME280;16044;52.726;-2.108;2022-08-02T02:44:18;100284.53;;;19.30;82.07
28935;BME280;16044;52.726;-2.108;2022-08-02T02:46:49;100284.78;;;19.28;81.85
28935;BME280;16044;52.726;-2.108;2022-08-02T02:49:19;100271.75;;;19.24;82.18
28935;BME280;16044;52.726;-2.108;2022-08-02T02:51:47;100278.19;;;19.29;81.90
28935;BME280;16044;52.726;-2.108;2022-08-02T02:54:14;100273.78;;;19.28;82.06
28935;BME280;16044;52.726;-2.108;2022-08-02T02:57:00;100274.47;;;19.24;82.05
28935;BME280;16044;52.726;-2.108;2022-08-02T02:59:29;100279.16;;;19.23;82.24
28935;BME280;16044;52.726;-2.108;2022-08-02T03:01:59;100272.22;;;19.21;82.47
28935;BME280;16044;52.726;-2.108;2022-08-02T03:04:29;100272.94;;;19.16;82.67
28935;BME280;16044;52.726;-2.108;2022-08-02T03:07:17;100263.72;;;19.22;82.46
28935;BME280;16044;52.726;-2.108;2022-08-02T03:09:44;100271.50;;;19.25;82.49
28935;BME280;16044;52.726;-2.108;2022-08-02T03:12:21;100265.06;;;19.20;82.71
28935;BME280;16044;52.726;-2.108;2022-08-02T03:14:57;100265.66;;;19.22;82.63
28935;BME280;16044;52.726;-2.108;2022-08-02T03:17:36;100269.00;;;19.12;83.03
28935;BME280;16044;52.726;-2.108;2022-08-02T03:20:17;100264.22;;;19.19;83.03
28935;BME280;16044;52.726;-2.108;2022-08-02T03:22:45;100270.41;;;19.15;83.09
28935;BME280;16044;52.726;-2.108;2022-08-02T03:25:14;100274.72;;;19.22;82.98
28935;BME280;16044;52.726;-2.108;2022-08-02T03:27:42;100267.56;;;19.21;83.30
28935;BME280;16044;52.726;-2.108;2022-08-02T03:30:10;100260.38;;;19.20;83.42
28935;BME280;16044;52.726;-2.108;2022-08-02T03:32:41;100267.22;;;19.18;83.63
28935;BME280;16044;52.726;-2.108;2022-08-02T03:35:12;100253.59;;;19.23;83.34
28935;BME280;16044;52.726;-2.108;2022-08-02T03:37:45;100262.66;;;19.23;83.23
28935;BME280;16044;52.726;-2.108;2022-08-02T03:40:14;100262.31;;;19.20;83.55
28935;BME280;16044;52.726;-2.108;2022-08-02T03:42:41;100256.44;;;19.28;83.22
28935;BME280;16044;52.726;-2.108;2022-08-02T03:45:10;100264.59;;;19.23;83.48
28935;BME280;16044;52.726;-2.108;2022-08-02T03:47:38;100262.91;;;19.22;83.44
28935;BME280;16044;52.726;-2.108;2022-08-02T03:50:08;100258.72;;;19.19;83.40
28935;BME280;16044;52.726;-2.108;2022-08-02T03:52:40;100261.59;;;19.24;83.43
28935;BME280;16044;52.726;-2.108;2022-08-02T03:55:11;100251.22;;;19.26;83.12
28935;BME280;16044;52.726;-2.108;2022-08-02T03:57:42;100245.44;;;19.28;83.41
28935;BME280;16044;52.726;-2.108;2022-08-02T04:00:11;100252.03;;;19.15;83.90
28935;BME280;16044;52.726;-2.108;2022-08-02T04:02:43;100243.91;;;19.20;83.65
28935;BME280;16044;52.726;-2.108;2022-08-02T04:05:10;100237.22;;;19.16;83.75
28935;BME280;16044;52.726;-2.108;2022-08-02T04:07:37;100237.81;;;19.18;83.40
28935;BME280;16044;52.726;-2.108;2022-08-02T04:10:25;100247.75;;;19.19;83.59
28935;BME280;16044;52.726;-2.108;2022-08-02T04:12:52;100244.88;;;19.14;83.60
28935;BME280;16044;52.726;-2.108;2022-08-02T04:15:19;100251.19;;;19.15;83.82
28935;BME280;16044;52.726;-2.108;2022-08-02T04:17:51;100253.09;;;19.14;83.82
28935;BME280;16044;52.726;-2.108;2022-08-02T04:20:28;100255.63;;;19.04;84.47
28935;BME280;16044;52.726;-2.108;2022-08-02T04:23:03;100252.16;;;19.08;83.92
28935;BME280;16044;52.726;-2.108;2022-08-02T04:25:33;100248.81;;;19.06;84.14
28935;BME280;16044;52.726;-2.108;2022-08-02T04:28:07;100246.66;;;19.08;84.05
28935;BME280;16044;52.726;-2.108;2022-08-02T04:30:44;100252.97;;;19.09;84.24
28935;BME280;16044;52.726;-2.108;2022-08-02T04:33:12;100244.75;;;19.09;84.30
28935;BME280;16044;52.726;-2.108;2022-08-02T04:35:40;100242.50;;;19.06;84.60
28935;BME280;16044;52.726;-2.108;2022-08-02T04:38:07;100240.44;;;19.01;84.98
28935;BME280;16044;52.726;-2.108;2022-08-02T04:40:36;100235.91;;;19.07;84.69
28935;BME280;16044;52.726;-2.108;2022-08-02T04:43:04;100239.50;;;19.07;84.69
28935;BME280;16044;52.726;-2.108;2022-08-02T04:45:31;100235.91;;;19.07;84.62
28935;BME280;16044;52.726;-2.108;2022-08-02T04:47:59;100240.34;;;19.08;84.72
28935;BME280;16044;52.726;-2.108;2022-08-02T04:50:33;100242.50;;;19.06;85.06
28935;BME280;16044;52.726;-2.108;2022-08-02T04:53:01;100241.41;;;19.07;84.98
28935;BME280;16044;52.726;-2.108;2022-08-02T04:55:28;100241.66;;;19.05;84.97
28935;BME280;16044;52.726;-2.108;2022-08-02T04:57:56;100226.38;;;19.09;84.72
28935;BME280;16044;52.726;-2.108;2022-08-02T05:00:25;100235.44;;;19.10;84.84
28935;BME280;16044;52.726;-2.108;2022-08-02T05:02:55;100246.88;;;19.07;84.98
28935;BME280;16044;52.726;-2.108;2022-08-02T05:05:22;100239.50;;;19.07;85.00
28935;BME280;16044;52.726;-2.108;2022-08-02T05:07:49;100238.41;;;19.08;84.87
28935;BME280;16044;52.726;-2.108;2022-08-02T05:10:16;100249.16;;;19.10;84.82
28935;BME280;16044;52.726;-2.108;2022-08-02T05:12:43;100248.72;;;19.13;84.67
28935;BME280;16044;52.726;-2.108;2022-08-02T05:15:11;100249.16;;;19.10;84.93
28935;BME280;16044;52.726;-2.108;2022-08-02T05:17:39;100256.94;;;19.13;84.74
28935;BME280;16044;52.726;-2.108;2022-08-02T05:20:17;100254.44;;;19.12;84.84
28935;BME280;16044;52.726;-2.108;2022-08-02T05:22:44;100252.03;;;19.15;84.74
28935;BME280;16044;52.726;-2.108;2022-08-02T05:25:12;100242.13;;;19.14;84.73
28935;BME280;16044;52.726;-2.108;2022-08-02T05:27:39;100240.19;;;19.15;84.75
28935;BME280;16044;52.726;-2.108;2022-08-02T05:30:07;100243.66;;;19.22;84.44
28935;BME280;16044;52.726;-2.108;2022-08-02T05:32:42;100231.84;;;19.21;84.40
28935;BME280;16044;52.726;-2.108;2022-08-02T05:35:19;100235.06;;;19.18;84.57
28935;BME280;16044;52.726;-2.108;2022-08-02T05:37:48;100235.06;;;19.18;84.85
28935;BME280;16044;52.726;-2.108;2022-08-02T05:40:16;100223.25;;;19.18;84.71
28935;BME280;16044;52.726;-2.108;2022-08-02T05:42:51;100223.59;;;19.21;84.68
28935;BME280;16044;52.726;-2.108;2022-08-02T05:45:19;100212.16;;;19.24;84.53
28935;BME280;16044;52.726;-2.108;2022-08-02T05:47:45;100221.69;;;19.22;84.82
28935;BME280;16044;52.726;-2.108;2022-08-02T05:50:12;100222.03;;;19.25;84.64
28935;BME280;16044;52.726;-2.108;2022-08-02T05:52:50;100214.97;;;19.29;84.56
28935;BME280;16044;52.726;-2.108;2022-08-02T05:55:27;100220.25;;;19.31;84.28
28935;BME280;16044;52.726;-2.108;2022-08-02T05:58:21;100228.00;;;19.34;84.47
28935;BME280;16044;52.726;-2.108;2022-08-02T06:00:54;100226.22;;;19.40;84.27
28935;BME280;16044;52.726;-2.108;2022-08-02T06:03:30;100233.50;;;19.46;84.23
28935;BME280;16044;52.726;-2.108;2022-08-02T06:06:07;100228.22;;;19.44;84.54
28935;BME280;16044;52.726;-2.108;2022-08-02T06:08:44;100219.16;;;19.44;84.40
28935;BME280;16044;52.726;-2.108;2022-08-02T06:11:16;100235.50;;;19.51;84.34
28935;BME280;16044;52.726;-2.108;2022-08-02T06:13:46;100238.59;;;19.54;84.38
28935;BME280;16044;52.726;-2.108;2022-08-02T06:16:13;100225.44;;;19.56;84.41
28935;BME280;16044;52.726;-2.108;2022-08-02T06:18:41;100231.88;;;19.62;84.28
28935;BME280;16044;52.726;-2.108;2022-08-02T06:21:09;100226.16;;;19.63;84.11
28935;BME280;16044;52.726;-2.108;2022-08-02T06:23:57;100222.41;;;19.70;84.09
28935;BME280;16044;52.726;-2.108;2022-08-02T06:26:26;100228.66;;;19.77;84.16
28935;BME280;16044;52.726;-2.108;2022-08-02T06:28:55;100223.75;;;19.79;84.11
28935;BME280;16044;52.726;-2.108;2022-08-02T06:31:23;100220.50;;;19.82;83.89
28935;BME280;16044;52.726;-2.108;2022-08-02T06:33:50;100231.63;;;19.87;83.81
28935;BME280;16044;52.726;-2.108;2022-08-02T06:41:38;100227.50;;;20.01;83.44
28935;BME280;16044;52.726;-2.108;2022-08-02T06:44:08;100224.84;;;20.06;83.13
28935;BME280;16044;52.726;-2.108;2022-08-02T06:46:56;100216.44;;;20.13;82.96
28935;BME280;16044;52.726;-2.108;2022-08-02T06:49:39;100225.78;;;20.12;82.90
28935;BME280;16044;52.726;-2.108;2022-08-02T06:52:18;100232.69;;;20.15;82.77
28935;BME280;16044;52.726;-2.108;2022-08-02T06:54:50;100237.81;;;20.23;82.59
28935;BME280;16044;52.726;-2.108;2022-08-02T06:57:17;100236.06;;;20.34;82.49
28935;BME280;16044;52.726;-2.108;2022-08-02T06:59:44;100238.69;;;20.40;82.20
28935;BME280;16044;52.726;-2.108;2022-08-02T07:02:11;100230.25;;;20.47;81.90
28935;BME280;16044;52.726;-2.108;2022-08-02T07:04:38;100231.88;;;20.60;81.67
28935;BME280;16044;52.726;-2.108;2022-08-02T07:07:05;100239.41;;;20.64;81.06
28935;BME280;16044;52.726;-2.108;2022-08-02T07:09:32;100227.03;;;20.67;80.88
28935;BME280;16044;52.726;-2.108;2022-08-02T07:11:59;100235.66;;;20.71;80.58
28935;BME280;16044;52.726;-2.108;2022-08-02T07:14:26;100220.28;;;20.75;80.41
28935;BME280;16044;52.726;-2.108;2022-08-02T07:16:53;100234.72;;;20.82;80.00
28935;BME280;16044;52.726;-2.108;2022-08-02T07:19:20;100230.97;;;20.88;80.02
28935;BME280;16044;52.726;-2.108;2022-08-02T07:21:57;100233.31;;;20.96;79.69
28935;BME280;16044;52.726;-2.108;2022-08-02T07:24:27;100236.38;;;21.00;79.27
28935;BME280;16044;52.726;-2.108;2022-08-02T07:26:54;100236.97;;;21.02;79.27
28935;BME280;16044;52.726;-2.108;2022-08-02T07:29:37;100255.84;;;21.10;79.13
28935;BME280;16044;52.726;-2.108;2022-08-02T07:32:21;100250.41;;;21.15;78.75
28935;BME280;16044;52.726;-2.108;2022-08-02T07:34:50;100253.78;;;21.22;78.52
28935;BME280;16044;52.726;-2.108;2022-08-02T07:37:29;100253.31;;;21.26;78.65
28935;BME280;16044;52.726;-2.108;2022-08-02T07:40:18;100253.44;;;21.36;78.49
28935;BME280;16044;52.726;-2.108;2022-08-02T07:42:50;100241.25;;;21.49;78.29
28935;BME280;16044;52.726;-2.108;2022-08-02T07:45:28;100239.00;;;21.68;77.93
28935;BME280;16044;52.726;-2.108;2022-08-02T07:47:55;100234.00;;;21.87;77.83
28935;BME280;16044;52.726;-2.108;2022-08-02T07:50:22;100238.84;;;22.02;77.11
28935;BME280;16044;52.726;-2.108;2022-08-02T07:52:49;100237.38;;;22.16;76.47
28935;BME280;16044;52.726;-2.108;2022-08-02T07:55:24;100238.94;;;22.34;75.37
28935;BME280;16044;52.726;-2.108;2022-08-02T07:58:06;100237.19;;;22.50;74.69
28935;BME280;16044;52.726;-2.108;2022-08-02T08:00:38;100227.03;;;22.61;73.99
28935;BME280;16044;52.726;-2.108;2022-08-02T08:03:06;100229.22;;;22.58;73.46
28935;BME280;16044;52.726;-2.108;2022-08-02T08:05:33;100227.34;;;22.64;73.15
28935;BME280;16044;52.726;-2.108;2022-08-02T08:08:00;100231.16;;;22.58;73.00
28935;BME280;16044;52.726;-2.108;2022-08-02T08:10:27;100223.97;;;22.57;72.42
28935;BME280;16044;52.726;-2.108;2022-08-02T08:12:53;100229.50;;;22.57;71.83
28935;BME280;16044;52.726;-2.108;2022-08-02T08:15:20;100231.84;;;22.43;72.16
28935;BME280;16044;52.726;-2.108;2022-08-02T08:17:47;100230.47;;;22.41;72.82
28935;BME280;16044;52.726;-2.108;2022-08-02T08:20:14;100229.41;;;22.47;72.82
28935;BME280;16044;52.726;-2.108;2022-08-02T08:22:41;100227.28;;;22.54;72.80
28935;BME280;16044;52.726;-2.108;2022-08-02T08:25:08;100227.00;;;22.55;72.86
28935;BME280;16044;52.726;-2.108;2022-08-02T08:27:36;100227.59;;;22.63;72.10
28935;BME280;16044;52.726;-2.108;2022-08-02T08:30:03;100231.47;;;22.62;72.22
28935;BME280;16044;52.726;-2.108;2022-08-02T08:32:30;100225.66;;;22.58;72.08
28935;BME280;16044;52.726;-2.108;2022-08-02T08:34:57;100225.88;;;22.51;72.27
28935;BME280;16044;52.726;-2.108;2022-08-02T08:37:24;100217.22;;;22.43;72.16
28935;BME280;16044;52.726;-2.108;2022-08-02T08:39:52;100225.75;;;22.41;72.26
28935;BME280;16044;52.726;-2.108;2022-08-02T08:42:27;100222.69;;;22.37;72.23
28935;BME280;16044;52.726;-2.108;2022-08-02T08:44:57;100232.34;;;22.35;72.51
28935;BME280;16044;52.726;-2.108;2022-08-02T08:47:34;100228.69;;;22.29;72.58
28935;BME280;16044;52.726;-2.108;2022-08-02T08:50:15;100237.72;;;22.25;72.28
28935;BME280;16044;52.726;-2.108;2022-08-02T08:55:28;100240.75;;;22.23;72.63
28935;BME280;16044;52.726;-2.108;2022-08-02T08:57:58;100233.25;;;22.18;72.81
28935;BME280;16044;52.726;-2.108;2022-08-02T09:00:28;100226.34;;;22.21;72.79
28935;BME280;16044;52.726;-2.108;2022-08-02T09:02:57;100234.38;;;22.23;72.59
28935;BME280;16044;52.726;-2.108;2022-08-02T09:05:24;100226.59;;;22.14;72.94
28935;BME280;16044;52.726;-2.108;2022-08-02T09:07:52;100229.53;;;22.08;72.94
28935;BME280;16044;52.726;-2.108;2022-08-02T09:13:25;100227.00;;;22.01;72.90
28935;BME280;16044;52.726;-2.108;2022-08-02T09:16:11;100232.19;;;21.97;73.34
28935;BME280;16044;52.726;-2.108;2022-08-02T09:18:44;100214.91;;;21.80;73.79
28935;BME280;16044;52.726;-2.108;2022-08-02T09:21:16;100221.06;;;21.87;73.65
28935;BME280;16044;52.726;-2.108;2022-08-02T09:23:50;100218.88;;;21.89;73.66
28935;BME280;16044;52.726;-2.108;2022-08-02T09:26:20;100229.91;;;21.89;73.73
28935;BME280;16044;52.726;-2.108;2022-08-02T09:28:51;100221.06;;;21.87;73.96
28935;BME280;16044;52.726;-2.108;2022-08-02T09:31:21;100222.19;;;21.91;73.93
28935;BME280;16044;52.726;-2.108;2022-08-02T09:33:57;100222.69;;;21.88;74.04
28935;BME280;16044;52.726;-2.108;2022-08-02T09:36:26;100223.34;;;21.95;74.12
28935;BME280;16044;52.726;-2.108;2022-08-02T09:39:04;100224.47;;;21.99;74.09
28935;BME280;16044;52.726;-2.108;2022-08-02T09:41:35;100217.91;;;22.06;74.22
28935;BME280;16044;52.726;-2.108;2022-08-02T09:44:04;100218.81;;;22.11;74.02
28935;BME280;16044;52.726;-2.108;2022-08-02T09:49:16;100222.47;;;22.17;73.85
28935;BME280;16044;52.726;-2.108;2022-08-02T09:54:20;100211.31;;;22.29;73.36
28935;BME280;16044;52.726;-2.108;2022-08-02T09:56:58;100219.94;;;22.37;73.18
28935;BME280;16044;52.726;-2.108;2022-08-02T09:59:27;100216.09;;;22.38;73.30
28935;BME280;16044;52.726;-2.108;2022-08-02T10:01:56;100218.38;;;22.47;73.15
28935;BME280;16044;52.726;-2.108;2022-08-02T10:04:30;100233.31;;;22.51;72.80
28935;BME280;16044;52.726;-2.108;2022-08-02T10:07:02;100235.56;;;22.54;72.20
28935;BME280;16044;52.726;-2.108;2022-08-02T10:09:32;100241.91;;;22.54;72.12
28935;BME280;16044;52.726;-2.108;2022-08-02T10:11:59;100241.09;;;22.54;72.02
28935;BME280;16044;52.726;-2.108;2022-08-02T10:14:28;100238.88;;;22.56;71.77
28935;BME280;16044;52.726;-2.108;2022-08-02T10:16:56;100233.84;;;22.48;72.19
28935;BME280;16044;52.726;-2.108;2022-08-02T10:19:24;100233.28;;;22.46;71.91
28935;BME280;16044;52.726;-2.108;2022-08-02T10:22:13;100232.25;;;22.57;72.61
28935;BME280;16044;52.726;-2.108;2022-08-02T10:24:43;100234.72;;;22.53;73.53
28935;BME280;16044;52.726;-2.108;2022-08-02T10:27:18;100244.50;;;22.66;72.87
28935;BME280;16044;52.726;-2.108;2022-08-02T10:29:48;100230.72;;;22.71;71.96
28935;BME280;16044;52.726;-2.108;2022-08-02T10:32:29;100248.75;;;22.79;72.00
28935;BME280;16044;52.726;-2.108;2022-08-02T10:38:03;100251.50;;;23.06;71.19
28935;BME280;16044;52.726;-2.108;2022-08-02T10:40:51;100241.09;;;23.24;70.04
28935;BME280;16044;52.726;-2.108;2022-08-02T10:49:09;100247.38;;;23.62;69.42
28935;BME280;16044;52.726;-2.108;2022-08-02T10:57:00;100241.91;;;23.77;68.79
28935;BME280;16044;52.726;-2.108;2022-08-02T10:59:27;100250.28;;;23.92;68.16
28935;BME280;16044;52.726;-2.108;2022-08-02T11:01:56;100246.72;;;23.97;68.09
28935;BME280;16044;52.726;-2.108;2022-08-02T11:04:29;100245.88;;;23.97;67.76
28935;BME280;16044;52.726;-2.108;2022-08-02T11:09:46;100236.53;;;24.13;67.35
28935;BME280;16044;52.726;-2.108;2022-08-02T11:12:17;100232.13;;;24.27;67.58
28935;BME280;16044;52.726;-2.108;2022-08-02T11:14:57;100217.44;;;24.42;67.03
28935;BME280;16044;52.726;-2.108;2022-08-02T11:17:56;100210.56;;;24.60;66.43
28935;BME280;16044;52.726;-2.108;2022-08-02T11:20:27;100213.03;;;24.98;65.84
28935;BME280;16044;52.726;-2.108;2022-08-02T11:22:54;100208.88;;;25.26;64.01
28935;BME280;16044;52.726;-2.108;2022-08-02T11:28:59;100199.78;;;25.80;61.90
28935;BME280;16044;52.726;-2.108;2022-08-02T11:31:41;100201.69;;;25.85;61.76
28935;BME280;16044;52.726;-2.108;2022-08-02T11:34:09;100195.78;;;26.02;61.41
28935;BME280;16044;52.726;-2.108;2022-08-02T11:36:56;100201.25;;;26.12;60.54
28935;BME280;16044;52.726;-2.108;2022-08-02T11:39:24;100210.13;;;26.14;60.53
28935;BME280;16044;52.726;-2.108;2022-08-02T11:41:55;100214.09;;;26.03;59.68
28935;BME280;16044;52.726;-2.108;2022-08-02T11:44:25;100218.34;;;25.85;60.12
28935;BME280;16044;52.726;-2.108;2022-08-02T11:47:00;100214.28;;;25.62;59.93
28935;BME280;16044;52.726;-2.108;2022-08-02T11:49:28;100219.91;;;25.31;61.09
28935;BME280;16044;52.726;-2.108;2022-08-02T11:52:00;100213.28;;;25.27;61.11
28935;BME280;16044;52.726;-2.108;2022-08-02T11:54:40;100230.50;;;25.08;62.07
28935;BME280;16044;52.726;-2.108;2022-08-02T11:57:26;100227.19;;;24.96;62.73
28935;BME280;16044;52.726;-2.108;2022-08-02T12:00:04;100223.84;;;24.84;62.73
28935;BME280;16044;52.726;-2.108;2022-08-02T12:02:46;100231.09;;;24.69;63.17
28935;BME280;16044;52.726;-2.108;2022-08-02T12:05:19;100228.88;;;24.71;63.32
28935;BME280;16044;52.726;-2.108;2022-08-02T12:08:07;100222.47;;;24.61;63.82
28935;BME280;16044;52.726;-2.108;2022-08-02T12:10:34;100225.53;;;24.54;63.98
28935;BME280;16044;52.726;-2.108;2022-08-02T12:13:01;100221.06;;;24.48;64.17
28935;BME280;16044;52.726;-2.108;2022-08-02T12:15:35;100220.22;;;24.42;64.88
28935;BME280;16044;52.726;-2.108;2022-08-02T12:18:08;100213.34;;;24.55;64.62
28935;BME280;16044;52.726;-2.108;2022-08-02T12:21:03;100215.84;;;24.57;64.22
28935;BME280;16044;52.726;-2.108;2022-08-02T12:23:46;100198.94;;;24.58;64.01
28935;BME280;16044;52.726;-2.108;2022-08-02T12:26:26;100195.88;;;24.70;63.42
28935;BME280;16044;52.726;-2.108;2022-08-02T12:28:55;100193.66;;;24.77;63.79
28935;BME280;16044;52.726;-2.108;2022-08-02T12:31:38;100189.75;;;24.83;63.49
28935;BME280;16044;52.726;-2.108;2022-08-02T12:34:24;100184.50;;;24.97;63.28
28935;BME280;16044;52.726;-2.108;2022-08-02T12:39:40;100166.41;;;25.25;62.64
28935;BME280;16044;52.726;-2.108;2022-08-02T12:42:10;100170.56;;;25.33;61.93
28935;BME280;16044;52.726;-2.108;2022-08-02T12:44:58;100171.94;;;25.36;61.09
28935;BME280;16044;52.726;-2.108;2022-08-02T12:47:26;100176.09;;;25.33;60.39
28935;BME280;16044;52.726;-2.108;2022-08-02T12:50:12;100168.03;;;25.37;61.08
28935;BME280;16044;52.726;-2.108;2022-08-02T12:53:11;100173.28;;;25.43;60.63
28935;BME280;16044;52.726;-2.108;2022-08-02T12:55:56;100169.69;;;25.43;59.88
28935;BME280;16044;52.726;-2.108;2022-08-02T12:58:29;100163.84;;;25.44;59.49
28935;BME280;16044;52.726;-2.108;2022-08-02T13:00:59;100174.69;;;25.41;58.82
28935;BME280;16044;52.726;-2.108;2022-08-02T13:03:27;100184.38;;;25.43;58.35
28935;BME280;16044;52.726;-2.108;2022-08-02T13:06:15;100163.88;;;25.39;59.09
28935;BME280;16044;52.726;-2.108;2022-08-02T13:09:10;100171.13;;;25.30;59.19
28935;BME280;16044;52.726;-2.108;2022-08-02T13:11:39;100181.06;;;25.41;59.56
28935;BME280;16044;52.726;-2.108;2022-08-02T13:14:10;100181.59;;;25.48;59.99
28935;BME280;16044;52.726;-2.108;2022-08-02T13:16:39;100175.19;;;25.48;59.13
28935;BME280;16044;52.726;-2.108;2022-08-02T13:19:07;100168.81;;;25.47;59.09
28935;BME280;16044;52.726;-2.108;2022-08-02T13:21:34;100180.38;;;25.65;58.70
28935;BME280;16044;52.726;-2.108;2022-08-02T13:24:07;100169.84;;;25.67;59.47
28935;BME280;16044;52.726;-2.108;2022-08-02T13:26:54;100175.63;;;25.76;59.63
28935;BME280;16044;52.726;-2.108;2022-08-02T13:29:21;100172.56;;;25.82;60.20
28935;BME280;16044;52.726;-2.108;2022-08-02T13:31:48;100178.88;;;25.93;59.65
28935;BME280;16044;52.726;-2.108;2022-08-02T13:34:15;100166.16;;;25.82;59.49
28935;BME280;16044;52.726;-2.108;2022-08-02T13:36:42;100171.69;;;25.92;59.78
28935;BME280;16044;52.726;-2.108;2022-08-02T13:39:09;100162.75;;;25.95;59.22
28935;BME280;16044;52.726;-2.108;2022-08-02T13:41:37;100165.28;;;25.92;59.01
28935;BME280;16044;52.726;-2.108;2022-08-02T13:44:04;100167.81;;;25.83;58.92
28935;BME280;16044;52.726;-2.108;2022-08-02T13:46:36;100160.31;;;25.83;59.15
28935;BME280;16044;52.726;-2.108;2022-08-02T13:49:14;100155.28;;;25.91;59.32
28935;BME280;16044;52.726;-2.108;2022-08-02T13:51:46;100159.44;;;25.93;59.31
28935;BME280;16044;52.726;-2.108;2022-08-02T13:54:14;100162.72;;;26.05;59.60
28935;BME280;16044;52.726;-2.108;2022-08-02T13:56:41;100163.03;;;25.99;59.66